Time;durP1;ratioP1;P1;durP2;ratioP2;P2;SDS_P1;SDS_P2;PMS_P1;PMS_P2;Temp;Humidity;BMP_temperature;BMP_pressure;BME280_temperature;BME280_humidity;BME280_pressure;Samples;Min_cycle;Max_cycle;Signal;HPM_P1;HPM_P2
2023/06/06 00:00:30;;;;;;;10.25;7.30;;;19.80;84.70;;;;;;5033183;28;20029;-72
2023/06/06 00:02:56;;;;;;;11.43;7.43;;;19.70;84.80;;;;;;5032853;28;20025;-73
2023/06/06 00:05:25;;;;;;;13.90;8.18;;;19.70;84.90;;;;;;5033263;28;20083;-73
2023/06/06 00:07:52;;;;;;;11.38;8.55;;;19.70;84.90;;;;;;5033266;28;20117;-72
2023/06/06 00:10:18;;;;;;;9.05;7.65;;;19.70;85.00;;;;;;5033304;28;20021;-73
2023/06/06 00:12:45;;;;;;;10.73;7.95;;;19.60;85.10;;;;;;5033079;28;20063;-72
2023/06/06 00:15:13;;;;;;;11.30;8.77;;;19.60;85.10;;;;;;5033285;28;20471;-72
2023/06/06 00:17:42;;;;;;;11.38;8.70;;;19.60;85.10;;;;;;5032791;28;20025;-73
2023/06/06 00:20:09;;;;;;;10.77;8.60;;;19.60;85.10;;;;;;5033115;28;20018;-72
2023/06/06 00:22:36;;;;;;;11.13;8.27;;;19.60;85.30;;;;;;5032733;28;20029;-73
2023/06/06 00:25:03;;;;;;;11.50;8.23;;;19.50;85.30;;;;;;5032967;28;20475;-72
2023/06/06 00:27:29;;;;;;;12.27;8.95;;;19.50;85.40;;;;;;5033016;28;20032;-73
2023/06/06 00:29:55;;;;;;;10.25;8.45;;;19.50;85.40;;;;;;5032918;28;20514;-72
2023/06/06 00:32:20;;;;;;;13.65;9.18;;;19.40;85.40;;;;;;5032563;28;20037;-73
2023/06/06 00:34:46;;;;;;;12.48;8.63;;;19.40;85.30;;;;;;5036309;28;20497;-72
2023/06/06 00:37:11;;;;;;;11.65;8.00;;;19.40;85.40;;;;;;5036926;28;20025;-73
2023/06/06 00:39:37;;;;;;;11.40;9.15;;;19.40;85.70;;;;;;5036768;28;20022;-73
2023/06/06 00:42:03;;;;;;;11.25;8.20;;;19.40;85.50;;;;;;5036749;28;20035;-74
2023/06/06 00:44:28;;;;;;;9.73;7.88;;;19.40;85.50;;;;;;5034879;28;20073;-72
2023/06/06 00:46:54;;;;;;;12.80;9.13;;;19.30;85.60;;;;;;5035967;28;20112;-73
2023/06/06 00:49:20;;;;;;;11.95;8.80;;;19.30;85.70;;;;;;5036643;28;20025;-72
2023/06/06 00:51:46;;;;;;;11.57;8.40;;;19.30;85.60;;;;;;5036675;28;20467;-72
2023/06/06 00:54:13;;;;;;;8.57;7.68;;;19.30;85.60;;;;;;5036582;28;20026;-73
2023/06/06 00:56:42;;;;;;;10.80;8.40;;;19.20;85.60;;;;;;5036843;28;20136;-73
2023/06/06 00:59:07;;;;;;;17.67;9.35;;;19.30;85.80;;;;;;5036530;28;20029;-72
2023/06/06 01:01:36;;;;;;;8.68;7.53;;;19.30;85.70;;;;;;5036337;28;20033;-72
2023/06/06 01:04:10;;;;;;;10.32;8.30;;;19.20;85.80;;;;;;5036416;28;20029;-73
2023/06/06 01:06:37;;;;;;;11.50;9.02;;;19.20;85.90;;;;;;5036217;28;20024;-72
2023/06/06 01:09:05;;;;;;;10.75;7.97;;;19.10;85.90;;;;;;5036624;28;20021;-72
2023/06/06 01:12:08;;;;;;;12.68;8.10;;;19.10;85.90;;;;;;5036348;28;20104;-72
2023/06/06 01:14:49;;;;;;;13.63;8.43;;;19.20;86.00;;;;;;5035910;28;20092;-72
2023/06/06 01:17:17;;;;;;;8.52;7.55;;;19.20;86.00;;;;;;5036194;28;20033;-72
2023/06/06 01:19:44;;;;;;;11.23;7.85;;;19.10;86.30;;;;;;5036128;28;20029;-72
2023/06/06 01:22:12;;;;;;;13.52;8.00;;;19.10;86.40;;;;;;5036211;28;20060;-72
2023/06/06 01:24:44;;;;;;;11.55;8.88;;;19.10;86.30;;;;;;5035962;28;20047;-72
2023/06/06 01:27:10;;;;;;;11.70;7.90;;;19.10;86.30;;;;;;5034927;28;20022;-72
2023/06/06 01:29:35;;;;;;;10.52;8.70;;;19.10;86.20;;;;;;5035630;28;20575;-72
2023/06/06 01:32:19;;;;;;;10.27;7.40;;;19.10;86.40;;;;;;5035894;28;20037;-73
2023/06/06 01:34:50;;;;;;;9.55;8.50;;;19.00;86.40;;;;;;5035805;28;20521;-74
2023/06/06 01:37:23;;;;;;;11.07;7.65;;;19.00;86.40;;;;;;5035997;28;20018;-73
2023/06/06 01:39:55;;;;;;;10.38;7.78;;;19.00;86.40;;;;;;5035642;28;20032;-73
2023/06/06 01:42:21;;;;;;;13.00;8.07;;;19.00;86.50;;;;;;5035572;28;20522;-73
2023/06/06 01:44:51;;;;;;;11.40;8.80;;;19.00;86.60;;;;;;5035154;28;20030;-73
2023/06/06 01:47:17;;;;;;;10.55;8.55;;;19.00;86.70;;;;;;5035799;28;20032;-73
2023/06/06 01:49:44;;;;;;;11.32;8.63;;;18.90;86.80;;;;;;5035566;28;20028;-73
2023/06/06 01:52:10;;;;;;;11.25;8.82;;;18.90;86.80;;;;;;5035516;28;20022;-73
2023/06/06 01:54:36;;;;;;;11.82;8.32;;;18.90;86.90;;;;;;5035491;28;20172;-74
2023/06/06 01:57:02;;;;;;;9.77;7.90;;;18.90;87.10;;;;;;5035821;28;20033;-73
2023/06/06 01:59:28;;;;;;;10.90;8.55;;;18.80;87.10;;;;;;5034942;28;20029;-73
2023/06/06 02:01:54;;;;;;;11.10;8.57;;;18.80;87.20;;;;;;5035370;28;20031;-73
2023/06/06 02:04:19;;;;;;;12.43;8.98;;;18.80;87.30;;;;;;5035140;28;20038;-73
2023/06/06 02:06:45;;;;;;;9.55;8.13;;;18.70;87.30;;;;;;5035508;28;20021;-72
2023/06/06 02:09:10;;;;;;;11.27;8.70;;;18.80;87.40;;;;;;5035204;28;20030;-73
2023/06/06 02:11:36;;;;;;;11.70;8.80;;;18.70;87.40;;;;;;5035277;28;20029;-73
2023/06/06 02:14:02;;;;;;;14.07;9.60;;;18.70;87.40;;;;;;5034877;28;20022;-72
2023/06/06 02:16:29;;;;;;;10.98;8.15;;;18.70;87.60;;;;;;5035063;28;20035;-73
2023/06/06 02:18:56;;;;;;;11.20;8.70;;;18.70;87.60;;;;;;5035052;28;20025;-72
2023/06/06 02:21:21;;;;;;;11.98;9.23;;;18.70;87.50;;;;;;5035031;28;20033;-73
2023/06/06 02:23:47;;;;;;;11.55;9.30;;;18.70;87.50;;;;;;5033656;28;20125;-72
2023/06/06 02:26:12;;;;;;;13.23;9.10;;;18.70;87.60;;;;;;5034677;28;20104;-72
2023/06/06 02:28:38;;;;;;;9.90;8.55;;;18.70;87.70;;;;;;5034806;28;20038;-73
2023/06/06 02:31:04;;;;;;;11.27;8.63;;;18.60;87.70;;;;;;5034645;28;20467;-73
2023/06/06 02:33:30;;;;;;;11.30;9.43;;;18.60;88.00;;;;;;5035021;28;20049;-73
2023/06/06 02:35:55;;;;;;;11.85;9.45;;;18.60;87.80;;;;;;5034617;28;20475;-73
2023/06/06 02:38:22;;;;;;;11.70;8.68;;;18.50;87.90;;;;;;5034777;28;20112;-72
2023/06/06 02:40:47;;;;;;;12.07;9.48;;;18.60;88.00;;;;;;5034620;28;20021;-72
2023/06/06 02:43:13;;;;;;;12.23;9.30;;;18.50;88.20;;;;;;5034520;28;20528;-72
2023/06/06 02:45:38;;;;;;;11.57;8.90;;;18.50;88.20;;;;;;5034414;28;20037;-72
2023/06/06 02:48:04;;;;;;;11.95;9.35;;;18.50;88.20;;;;;;5034590;28;20025;-72
2023/06/06 02:50:31;;;;;;;10.88;9.00;;;18.50;88.10;;;;;;5034340;28;20037;-73
2023/06/06 02:53:00;;;;;;;14.20;9.35;;;18.50;88.20;;;;;;5034445;28;20030;-73
2023/06/06 02:55:26;;;;;;;12.70;9.85;;;18.50;88.40;;;;;;5033535;28;20044;-72
2023/06/06 02:57:51;;;;;;;13.23;9.70;;;18.50;88.40;;;;;;5033905;28;20026;-73
2023/06/06 03:00:17;;;;;;;12.98;10.18;;;18.40;88.40;;;;;;5034216;28;20021;-72
2023/06/06 03:02:43;;;;;;;12.32;10.15;;;18.40;88.50;;;;;;5034267;28;20037;-72
2023/06/06 03:05:09;;;;;;;14.20;9.07;;;18.40;88.60;;;;;;5034354;28;20425;-73
2023/06/06 03:07:37;;;;;;;12.85;9.88;;;18.40;88.40;;;;;;5033992;28;20071;-73
2023/06/06 03:10:03;;;;;;;13.25;9.88;;;18.40;88.60;;;;;;5033971;28;20025;-72
2023/06/06 03:12:28;;;;;;;12.80;9.98;;;18.40;88.70;;;;;;5032656;28;20041;-72
2023/06/06 03:14:54;;;;;;;12.35;9.63;;;18.40;88.60;;;;;;5033970;28;20025;-72
2023/06/06 03:17:19;;;;;;;11.98;9.82;;;18.30;88.60;;;;;;5033934;28;20026;-72
2023/06/06 03:19:48;;;;;;;14.15;9.00;;;18.30;88.60;;;;;;5033969;28;20144;-72
2023/06/06 03:22:15;;;;;;;12.45;9.70;;;18.30;88.80;;;;;;5033523;28;20033;-73
2023/06/06 03:24:41;;;;;;;11.82;9.52;;;18.20;88.90;;;;;;5033230;28;20069;-73
2023/06/06 03:27:06;;;;;;;11.57;9.18;;;18.20;88.90;;;;;;5033675;28;20119;-72
2023/06/06 03:29:32;;;;;;;14.40;10.10;;;18.20;88.90;;;;;;5033647;28;20451;-72
2023/06/06 03:31:58;;;;;;;14.20;10.13;;;18.20;89.00;;;;;;5032328;28;20101;-72
2023/06/06 03:34:25;;;;;;;12.30;8.80;;;18.20;88.90;;;;;;5033619;28;20100;-72
2023/06/06 03:36:52;;;;;;;13.35;9.95;;;18.20;89.10;;;;;;5033533;28;20071;-73
2023/06/06 03:39:17;;;;;;;11.68;9.48;;;18.20;89.00;;;;;;5033304;28;20029;-74
2023/06/06 03:41:43;;;;;;;15.18;10.38;;;18.20;89.10;;;;;;5033545;28;20021;-73
2023/06/06 03:44:08;;;;;;;14.35;10.05;;;18.20;89.10;;;;;;5033475;28;20540;-73
2023/06/06 03:46:34;;;;;;;14.02;10.07;;;18.20;89.00;;;;;;5033420;28;20454;-73
2023/06/06 03:49:00;;;;;;;13.85;9.30;;;18.20;89.10;;;;;;5033662;28;20071;-73
2023/06/06 03:51:26;;;;;;;15.57;10.50;;;18.10;89.10;;;;;;5033358;28;20696;-73
2023/06/06 03:53:51;;;;;;;18.70;10.52;;;18.10;89.20;;;;;;5033218;28;20029;-73
2023/06/06 03:56:17;;;;;;;14.35;10.02;;;18.10;89.20;;;;;;5033239;28;20029;-73
2023/06/06 03:58:43;;;;;;;10.73;9.18;;;18.10;89.20;;;;;;5033112;28;20394;-73
2023/06/06 04:01:09;;;;;;;12.70;9.88;;;18.10;89.20;;;;;;5033318;28;20010;-73
2023/06/06 04:03:37;;;;;;;11.38;9.73;;;18.10;89.20;;;;;;5033079;28;20041;-74
2023/06/06 04:06:05;;;;;;;14.13;9.60;;;18.10;89.30;;;;;;5033334;28;20026;-73
2023/06/06 04:08:32;;;;;;;14.93;10.75;;;18.10;89.20;;;;;;5032960;28;20035;-73
2023/06/06 04:10:57;;;;;;;13.20;9.48;;;18.00;89.20;;;;;;5033207;28;20481;-73
2023/06/06 04:13:23;;;;;;;10.98;9.48;;;18.10;89.20;;;;;;5032929;28;20023;-73
2023/06/06 04:15:49;;;;;;;14.05;9.65;;;18.10;89.20;;;;;;5033188;28;20064;-74
2023/06/06 04:18:15;;;;;;;12.68;9.57;;;18.10;89.10;;;;;;5032850;28;20489;-73
2023/06/06 04:20:43;;;;;;;11.98;10.68;;;18.00;89.00;;;;;;5033319;28;20489;-73
2023/06/06 04:23:09;;;;;;;13.45;9.82;;;18.00;89.00;;;;;;5032741;28;20128;-73
2023/06/06 04:25:34;;;;;;;13.35;9.40;;;18.00;88.90;;;;;;5033204;28;20475;-73
2023/06/06 04:28:05;;;;;;;11.68;9.82;;;18.00;88.90;;;;;;5032868;28;20038;-73
2023/06/06 04:30:32;;;;;;;12.93;9.70;;;18.00;88.90;;;;;;5031681;28;20390;-72
2023/06/06 04:32:58;;;;;;;12.73;8.30;;;18.00;89.20;;;;;;5032897;28;20014;-72
2023/06/06 04:35:24;;;;;;;12.23;9.18;;;18.00;88.30;;;;;;5031673;28;20026;-72
2023/06/06 04:37:54;;;;;;;10.30;8.30;;;18.00;88.00;;;;;;5032589;28;20057;-72
2023/06/06 04:40:22;;;;;;;12.88;8.80;;;18.00;87.70;;;;;;5032880;28;20494;-72
2023/06/06 04:42:49;;;;;;;10.77;8.55;;;18.00;87.70;;;;;;5032744;28;20048;-73
2023/06/06 04:45:16;;;;;;;11.18;8.75;;;18.10;87.80;;;;;;5032789;28;20123;-72
2023/06/06 04:47:44;;;;;;;11.73;9.27;;;18.10;87.80;;;;;;5032717;28;20025;-72
2023/06/06 04:50:10;;;;;;;11.00;8.27;;;18.00;87.50;;;;;;5033041;28;20022;-73
2023/06/06 04:52:36;;;;;;;14.02;8.82;;;18.10;87.90;;;;;;5032469;28;20418;-72
2023/06/06 04:55:03;;;;;;;10.60;8.30;;;18.10;88.00;;;;;;5032946;28;20022;-72
2023/06/06 04:57:29;;;;;;;13.43;8.27;;;18.00;87.50;;;;;;5032785;28;20143;-72
2023/06/06 04:59:56;;;;;;;9.65;8.00;;;18.10;88.10;;;;;;5032620;28;20021;-73
2023/06/06 05:02:23;;;;;;;10.00;8.23;;;18.10;87.60;;;;;;5032683;28;20013;-72
2023/06/06 05:04:53;;;;;;;11.07;8.57;;;18.10;88.10;;;;;;5031641;28;20044;-72
2023/06/06 05:07:19;;;;;;;11.98;8.20;;;18.10;88.00;;;;;;5040672;28;20467;-73
2023/06/06 05:09:45;;;;;;;9.15;7.38;;;18.10;87.90;;;;;;5045741;28;20061;-73
2023/06/06 05:12:10;;;;;;;11.20;8.13;;;18.10;88.10;;;;;;5053778;28;20056;-72
2023/06/06 05:14:36;;;;;;;10.25;8.10;;;18.10;87.80;;;;;;5052322;28;20466;-73
2023/06/06 05:17:02;;;;;;;11.85;7.95;;;18.10;87.90;;;;;;5040913;28;20482;-73
2023/06/06 05:19:28;;;;;;;10.70;8.75;;;18.10;87.70;;;;;;5037225;28;20056;-74
2023/06/06 05:21:53;;;;;;;11.20;7.80;;;18.10;87.70;;;;;;5052467;28;20025;-72
2023/06/06 05:24:19;;;;;;;12.52;8.32;;;18.10;87.80;;;;;;5035936;28;20076;-73
2023/06/06 05:26:45;;;;;;;16.48;9.05;;;18.10;87.80;;;;;;5043900;28;20050;-73
2023/06/06 05:29:11;;;;;;;12.80;8.77;;;18.00;87.50;;;;;;5036730;28;20133;-73
2023/06/06 05:31:37;;;;;;;9.88;7.65;;;18.00;87.90;;;;;;5041500;28;20514;-75
2023/06/06 05:34:03;;;;;;;12.40;8.52;;;18.10;88.20;;;;;;5070704;28;20020;-73
2023/06/06 05:36:29;;;;;;;14.25;8.77;;;18.00;88.10;;;;;;5056329;28;20045;-72
2023/06/06 05:38:55;;;;;;;16.60;7.85;;;18.10;88.10;;;;;;5040198;28;20101;-71
2023/06/06 05:41:20;;;;;;;12.05;8.40;;;18.10;89.20;;;;;;5043115;28;20479;-72
2023/06/06 05:43:47;;;;;;;11.80;9.18;;;18.20;88.60;;;;;;5038929;28;20045;-72
2023/06/06 05:46:13;;;;;;;10.43;8.20;;;18.30;88.40;;;;;;5043894;28;20024;-72
2023/06/06 05:48:39;;;;;;;10.20;7.97;;;18.30;88.00;;;;;;5037340;28;20037;-72
2023/06/06 05:51:05;;;;;;;12.10;8.40;;;18.40;87.50;;;;;;5050674;28;20048;-73
2023/06/06 05:53:31;;;;;;;12.63;7.95;;;18.50;87.20;;;;;;5053924;28;20493;-73
2023/06/06 05:55:57;;;;;;;11.07;7.78;;;18.50;87.20;;;;;;5046074;28;20069;-72
2023/06/06 05:58:23;;;;;;;13.93;8.82;;;18.60;87.50;;;;;;5046630;28;20106;-72
2023/06/06 06:00:48;;;;;;;14.63;9.13;;;18.60;86.70;;;;;;5043926;28;20029;-73
2023/06/06 06:03:15;;;;;;;11.02;8.27;;;18.70;86.90;;;;;;5038845;28;20033;-72
2023/06/06 06:05:40;;;;;;;12.07;7.22;;;18.80;86.90;;;;;;5043287;28;20472;-71
2023/06/06 06:08:06;;;;;;;13.20;7.70;;;18.90;86.40;;;;;;5048041;28;20506;-72
2023/06/06 06:10:34;;;;;;;10.13;7.22;;;19.00;86.10;;;;;;5034238;28;20494;-71
2023/06/06 06:13:01;;;;;;;9.23;6.85;;;19.00;86.40;;;;;;5044560;28;20430;-72
2023/06/06 06:15:29;;;;;;;13.27;6.50;;;19.10;85.90;;;;;;5043995;28;20027;-72
2023/06/06 06:17:55;;;;;;;14.55;7.90;;;19.10;86.00;;;;;;5035813;28;20037;-70
2023/06/06 06:20:20;;;;;;;10.20;7.28;;;19.10;86.10;;;;;;5031989;28;20025;-71
2023/06/06 06:22:47;;;;;;;10.32;7.82;;;19.20;85.60;;;;;;5033722;28;20076;-72
2023/06/06 06:25:13;;;;;;;13.10;7.63;;;19.30;84.90;;;;;;5037191;28;20025;-71
2023/06/06 06:27:40;;;;;;;10.20;7.43;;;19.40;84.50;;;;;;5033412;28;20497;-71
2023/06/06 06:30:06;;;;;;;13.30;7.68;;;19.50;84.20;;;;;;5038623;28;20037;-69
2023/06/06 06:32:36;;;;;;;9.85;7.38;;;19.50;84.20;;;;;;5039255;28;20029;-70
2023/06/06 06:35:02;;;;;;;12.48;6.78;;;19.50;84.10;;;;;;5047233;28;20382;-70
2023/06/06 06:37:32;;;;;;;8.65;6.97;;;19.50;84.10;;;;;;5035063;28;20090;-69
2023/06/06 06:40:00;;;;;;;12.13;7.57;;;19.60;83.80;;;;;;5036318;28;20087;-70
2023/06/06 06:42:26;;;;;;;10.85;7.18;;;19.70;84.00;;;;;;5033472;28;20033;-70
2023/06/06 06:44:52;;;;;;;10.68;6.80;;;19.70;84.20;;;;;;5041981;28;20486;-69
2023/06/06 06:47:19;;;;;;;15.30;7.55;;;19.80;84.20;;;;;;5032978;28;20032;-69
2023/06/06 06:49:45;;;;;;;9.82;6.82;;;19.90;83.60;;;;;;5050455;28;20509;-70
2023/06/06 06:52:11;;;;;;;13.50;6.38;;;19.90;82.90;;;;;;5037116;28;20018;-71
2023/06/06 06:54:52;;;;;;;10.18;6.80;;;19.90;82.80;;;;;;5039164;28;20025;-70
2023/06/06 06:57:19;;;;;;;9.88;6.90;;;19.90;82.80;;;;;;5033226;28;20053;-74
2023/06/06 06:59:46;;;;;;;9.00;6.80;;;20.00;83.00;;;;;;5033745;28;20029;-77
2023/06/06 07:02:11;;;;;;;9.23;5.70;;;20.00;83.10;;;;;;5035012;28;20604;-78
2023/06/06 07:04:39;;;;;;;9.77;7.03;;;20.00;83.60;;;;;;5043325;28;20061;-70
2023/06/06 07:07:05;;;;;;;8.63;5.57;;;20.10;83.10;;;;;;5033546;28;20463;-74
2023/06/06 07:09:31;;;;;;;10.90;7.00;;;20.10;83.40;;;;;;5042298;28;20025;-71
2023/06/06 07:11:56;;;;;;;9.50;6.38;;;20.20;82.60;;;;;;5038652;28;20017;-70
2023/06/06 07:14:22;;;;;;;9.70;6.43;;;20.20;82.80;;;;;;5040779;28;20025;-70
2023/06/06 07:16:48;;;;;;;8.45;6.45;;;20.30;82.60;;;;;;5038777;28;20017;-70
2023/06/06 07:19:13;;;;;;;8.98;6.53;;;20.30;83.30;;;;;;5061844;28;20043;-70
2023/06/06 07:21:39;;;;;;;9.30;7.13;;;20.40;83.40;;;;;;5045471;28;20553;-70
2023/06/06 07:24:05;;;;;;;10.40;7.18;;;20.40;82.50;;;;;;5060355;28;20490;-70
2023/06/06 07:26:31;;;;;;;8.52;6.15;;;20.50;82.10;;;;;;5038909;28;20032;-70
2023/06/06 07:28:56;;;;;;;9.30;5.93;;;20.50;81.90;;;;;;5042628;28;20033;-70
2023/06/06 07:31:22;;;;;;;10.15;6.40;;;20.60;82.30;;;;;;5054087;28;20068;-69
2023/06/06 07:33:48;;;;;;;9.32;5.57;;;20.50;82.60;;;;;;5052954;28;20021;-70
2023/06/06 07:36:14;;;;;;;6.65;5.57;;;20.60;82.80;;;;;;5043501;28;20079;-70
2023/06/06 07:38:39;;;;;;;7.22;5.70;;;20.60;82.90;;;;;;5053145;28;20390;-71
2023/06/06 07:41:05;;;;;;;10.30;5.97;;;20.70;83.00;;;;;;5053301;28;20112;-69
2023/06/06 07:43:31;;;;;;;8.68;5.60;;;20.70;82.90;;;;;;5057961;28;20484;-70
2023/06/06 07:45:56;;;;;;;8.00;6.07;;;20.70;82.70;;;;;;5032756;28;20040;-71
2023/06/06 07:48:22;;;;;;;11.10;5.65;;;20.70;82.50;;;;;;5033370;28;20136;-71
2023/06/06 07:50:47;;;;;;;7.95;5.35;;;20.80;82.70;;;;;;5040960;28;20053;-70
2023/06/06 07:53:13;;;;;;;10.98;6.25;;;20.80;82.30;;;;;;5038506;28;20036;-70
2023/06/06 07:55:38;;;;;;;9.63;6.05;;;20.90;82.10;;;;;;5036791;28;20070;-70
2023/06/06 07:58:10;;;;;;;8.82;6.15;;;20.90;82.90;;;;;;5056001;28;20037;-70
2023/06/06 08:00:39;;;;;;;9.55;5.88;;;21.00;81.50;;;;;;5069360;28;20091;-72
2023/06/06 08:03:06;;;;;;;12.45;6.40;;;21.00;82.30;;;;;;5060189;28;20036;-71
2023/06/06 08:05:33;;;;;;;11.93;6.10;;;21.10;82.30;;;;;;5071099;28;20081;-70
2023/06/06 08:08:00;;;;;;;9.20;6.32;;;21.10;81.80;;;;;;5066575;28;20017;-70
2023/06/06 08:10:26;;;;;;;9.57;5.95;;;21.20;81.80;;;;;;5038995;28;20029;-70
2023/06/06 08:12:51;;;;;;;8.38;6.03;;;21.20;82.10;;;;;;5066771;28;20017;-70
2023/06/06 08:15:17;;;;;;;13.40;6.07;;;21.20;81.70;;;;;;5060985;28;20028;-70
2023/06/06 08:17:44;;;;;;;11.02;5.80;;;21.20;81.60;;;;;;5059839;28;20112;-70
2023/06/06 08:20:11;;;;;;;11.35;5.80;;;21.30;81.60;;;;;;5060731;28;20424;-70
2023/06/06 08:22:38;;;;;;;10.48;5.30;;;21.30;81.60;;;;;;5067334;28;20073;-70
2023/06/06 08:25:07;;;;;;;9.10;5.18;;;21.30;82.30;;;;;;5072988;28;20040;-71
2023/06/06 08:27:34;;;;;;;14.15;6.63;;;21.30;82.30;;;;;;5044553;28;20109;-70
2023/06/06 08:30:00;;;;;;;9.32;6.22;;;21.40;81.20;;;;;;5061648;28;20025;-70
2023/06/06 08:32:26;;;;;;;8.25;5.95;;;21.40;81.00;;;;;;5072540;28;20021;-70
2023/06/06 08:34:52;;;;;;;10.52;5.85;;;21.40;81.10;;;;;;5056909;28;20052;-70
2023/06/06 08:37:18;;;;;;;9.00;5.80;;;21.50;81.50;;;;;;5045037;28;20036;-70
2023/06/06 08:39:45;;;;;;;10.57;6.03;;;21.50;81.50;;;;;;5032803;28;20026;-70
2023/06/06 08:42:12;;;;;;;8.20;5.85;;;21.50;81.30;;;;;;5031596;28;20056;-70
2023/06/06 08:44:38;;;;;;;9.40;6.20;;;21.50;81.60;;;;;;5048866;28;20068;-70
2023/06/06 08:47:06;;;;;;;9.80;5.50;;;21.50;81.10;;;;;;5052049;28;20060;-69
2023/06/06 08:49:34;;;;;;;11.90;6.07;;;21.50;81.50;;;;;;5052604;28;20024;-70
2023/06/06 08:52:01;;;;;;;10.50;6.25;;;21.60;81.10;;;;;;5040300;28;20108;-71
2023/06/06 08:54:27;;;;;;;9.13;5.47;;;21.60;81.10;;;;;;5047612;28;20071;-70
2023/06/06 08:56:54;;;;;;;9.60;6.38;;;21.60;81.40;;;;;;5053236;28;20138;-76
2023/06/06 08:59:21;;;;;;;6.55;5.68;;;21.60;81.00;;;;;;5056161;28;20463;-75
2023/06/06 09:01:50;;;;;;;10.35;5.65;;;21.60;81.10;;;;;;5052029;28;20029;-71
2023/06/06 09:04:16;;;;;;;13.40;6.07;;;21.60;81.10;;;;;;5055818;28;20462;-74
2023/06/06 09:06:45;;;;;;;9.25;5.97;;;21.70;81.20;;;;;;5043925;28;20026;-70
2023/06/06 09:09:12;;;;;;;10.07;6.68;;;21.70;81.50;;;;;;5048433;28;20460;-70
2023/06/06 09:11:38;;;;;;;10.95;6.53;;;21.70;81.00;;;;;;5047379;28;20018;-73
2023/06/06 09:14:07;;;;;;;8.38;6.03;;;21.70;81.20;;;;;;5055340;28;20025;-70
2023/06/06 09:16:33;;;;;;;13.32;5.78;;;21.70;81.10;;;;;;5062786;28;20029;-71
2023/06/06 09:19:01;;;;;;;7.85;5.40;;;21.70;81.20;;;;;;5033922;28;20064;-76
2023/06/06 09:21:32;;;;;;;7.28;4.60;;;21.80;81.30;;;;;;5044144;28;20040;-70
2023/06/06 09:23:58;;;;;;;10.93;5.77;;;21.80;81.20;;;;;;5034770;28;20034;-71
2023/06/06 09:26:23;;;;;;;11.00;5.00;;;21.70;81.30;;;;;;5037298;28;20375;-71
2023/06/06 09:28:50;;;;;;;9.13;5.63;;;21.70;81.70;;;;;;5035095;28;20137;-69
2023/06/06 09:31:30;;;;;;;10.23;6.13;;;21.70;81.70;;;;;;5067718;28;20027;-72
2023/06/06 09:33:57;;;;;;;11.80;5.90;;;21.70;81.40;;;;;;5059626;28;20075;-72
2023/06/06 09:36:24;;;;;;;11.27;5.07;;;21.70;81.60;;;;;;5044248;28;20036;-72
2023/06/06 09:38:51;;;;;;;10.20;6.18;;;21.70;82.10;;;;;;5041103;28;20025;-74
2023/06/06 09:41:17;;;;;;;8.50;5.70;;;21.70;81.90;;;;;;5051658;28;20057;-72
2023/06/06 09:43:43;;;;;;;11.82;6.40;;;21.80;81.80;;;;;;5041786;28;20480;-72
2023/06/06 09:46:08;;;;;;;10.07;5.75;;;21.80;81.90;;;;;;5041072;28;20052;-72
2023/06/06 09:48:34;;;;;;;9.82;5.97;;;21.80;81.80;;;;;;5035647;28;20045;-72
2023/06/06 09:51:00;;;;;;;6.45;5.55;;;21.80;82.00;;;;;;5040730;28;20498;-72
2023/06/06 09:53:27;;;;;;;11.18;6.05;;;21.80;82.30;;;;;;5035371;28;20030;-72
2023/06/06 09:55:55;;;;;;;7.68;4.97;;;21.80;82.20;;;;;;5035345;28;20028;-72
2023/06/06 09:58:22;;;;;;;7.88;5.80;;;21.90;82.10;;;;;;5043100;28;20037;-72
2023/06/06 10:00:49;;;;;;;8.05;4.13;;;21.80;81.90;;;;;;5035495;28;20024;-72
2023/06/06 10:03:22;;;;;;;8.20;5.20;;;21.80;82.10;;;;;;5034239;28;20057;-79
2023/06/06 10:05:49;;;;;;;8.43;5.60;;;21.80;82.10;;;;;;5035109;28;20018;-72
2023/06/06 10:08:17;;;;;;;13.13;5.85;;;21.80;82.10;;;;;;5041296;28;20009;-72
2023/06/06 10:10:48;;;;;;;11.00;5.13;;;21.90;82.20;;;;;;5043231;28;20481;-72
2023/06/06 10:13:24;;;;;;;8.63;5.15;;;21.90;82.00;;;;;;5038602;28;20061;-72
2023/06/06 10:15:50;;;;;;;13.18;6.53;;;21.90;82.20;;;;;;5045841;28;20459;-72
2023/06/06 10:18:16;;;;;;;9.52;6.00;;;21.90;81.90;;;;;;5035066;28;20024;-72
2023/06/06 10:20:44;;;;;;;6.57;4.80;;;22.00;82.10;;;;;;5034869;28;20513;-72
2023/06/06 10:23:10;;;;;;;10.27;6.10;;;21.90;82.10;;;;;;5053856;28;20036;-71
2023/06/06 10:25:37;;;;;;;9.77;6.00;;;21.90;82.00;;;;;;5044837;28;20034;-72
2023/06/06 10:28:12;;;;;;;11.00;7.43;;;21.90;82.10;;;;;;5046255;28;20041;-72
2023/06/06 10:30:43;;;;;;;13.95;6.60;;;22.00;82.10;;;;;;5051354;28;20113;-72
2023/06/06 10:33:42;;;;;;;10.50;6.82;;;22.00;82.10;;;;;;5035046;28;20087;-71
2023/06/06 10:36:10;;;;;;;9.35;5.53;;;22.00;81.80;;;;;;5043147;28;20017;-71
2023/06/06 10:38:37;;;;;;;9.57;6.10;;;22.00;82.30;;;;;;5034302;28;20075;-71
2023/06/06 10:41:17;;;;;;;8.63;6.97;;;22.00;82.10;;;;;;5043835;28;20370;-71
2023/06/06 10:43:46;;;;;;;12.18;6.25;;;22.00;81.60;;;;;;5040019;28;20115;-70
2023/06/06 10:46:12;;;;;;;10.52;6.10;;;22.00;81.80;;;;;;5037017;28;20021;-72
2023/06/06 10:48:39;;;;;;;11.85;6.88;;;22.00;81.90;;;;;;5052293;28;20112;-72
2023/06/06 10:51:25;;;;;;;8.73;6.72;;;22.10;82.00;;;;;;5050647;28;20083;-77
2023/06/06 10:54:12;;;;;;;10.18;6.80;;;22.10;82.10;;;;;;5037587;28;20442;-73
2023/06/06 10:56:45;;;;;;;9.75;7.25;;;22.10;81.90;;;;;;5041051;28;20021;-72
2023/06/06 10:59:12;;;;;;;10.30;6.95;;;22.10;82.20;;;;;;5039048;28;20451;-72
2023/06/06 11:01:40;;;;;;;9.75;6.55;;;22.10;82.10;;;;;;5037876;28;20021;-78
2023/06/06 11:04:20;;;;;;;10.95;6.18;;;22.10;82.20;;;;;;5054048;28;20095;-73
2023/06/06 11:06:47;;;;;;;12.82;7.78;;;22.10;82.10;;;;;;5053900;28;20060;-78
2023/06/06 11:09:25;;;;;;;11.20;6.28;;;22.10;82.20;;;;;;5051971;28;20389;-73
2023/06/06 11:12:13;;;;;;;10.07;6.60;;;22.10;82.00;;;;;;5048744;28;20489;-72
2023/06/06 11:14:57;;;;;;;9.63;6.97;;;22.10;81.70;;;;;;5033618;28;20025;-75
2023/06/06 11:17:41;;;;;;;9.23;4.93;;;22.20;82.10;;;;;;5033288;28;20048;-73
2023/06/06 11:20:16;;;;;;;10.38;6.25;;;22.10;82.10;;;;;;5034139;28;20017;-73
2023/06/06 11:23:02;;;;;;;7.90;5.47;;;22.20;82.00;;;;;;5033086;28;20026;-73
2023/06/06 11:25:35;;;;;;;11.52;6.20;;;22.20;82.00;;;;;;5033620;28;20033;-75
2023/06/06 11:28:01;;;;;;;12.15;5.95;;;22.20;82.20;;;;;;5033575;28;20034;-74
2023/06/06 11:30:33;;;;;;;8.27;5.25;;;22.20;82.20;;;;;;5033806;28;20017;-73
2023/06/06 11:33:00;;;;;;;9.45;5.85;;;22.20;82.20;;;;;;5033581;28;20025;-73
2023/06/06 11:35:28;;;;;;;10.00;6.55;;;22.20;82.30;;;;;;5033654;28;20470;-73
2023/06/06 11:37:55;;;;;;;10.32;6.38;;;22.20;82.40;;;;;;5033217;28;20032;-77
2023/06/06 11:40:24;;;;;;;9.93;5.68;;;22.20;82.40;;;;;;5033626;28;20017;-73
2023/06/06 11:42:50;;;;;;;8.73;5.82;;;22.20;82.30;;;;;;5033556;28;20101;-79
2023/06/06 11:45:17;;;;;;;12.95;5.88;;;22.20;82.40;;;;;;5033670;28;20109;-75
2023/06/06 11:47:43;;;;;;;12.23;6.82;;;22.20;82.50;;;;;;5033346;28;20379;-75
2023/06/06 11:50:10;;;;;;;8.85;5.72;;;22.30;82.30;;;;;;5033746;28;20025;-73
2023/06/06 11:52:47;;;;;;;9.63;5.78;;;22.30;82.10;;;;;;5032998;28;20021;-76
2023/06/06 11:55:13;;;;;;;8.25;6.13;;;22.30;82.20;;;;;;5033650;28;20029;-73
2023/06/06 11:57:39;;;;;;;9.73;4.97;;;22.30;81.90;;;;;;5033174;28;20529;-73
2023/06/06 12:00:17;;;;;;;6.13;4.07;;;22.30;82.00;;;;;;5033458;28;20029;-75
2023/06/06 12:02:48;;;;;;;8.88;4.03;;;22.30;81.90;;;;;;5033772;28;20396;-76
2023/06/06 12:05:21;;;;;;;10.60;6.05;;;22.30;81.90;;;;;;5042584;28;20452;-73
2023/06/06 12:07:50;;;;;;;8.65;5.68;;;22.30;82.10;;;;;;5041672;28;20018;-73
2023/06/06 12:10:30;;;;;;;10.70;5.82;;;22.30;82.00;;;;;;5033189;28;20079;-72
2023/06/06 12:12:56;;;;;;;11.20;5.20;;;22.40;82.10;;;;;;5036345;28;20009;-72
2023/06/06 12:15:27;;;;;;;14.23;5.63;;;22.30;82.00;;;;;;5032452;28;20029;-72
2023/06/06 12:17:53;;;;;;;9.75;5.63;;;22.30;81.90;;;;;;5040231;28;20020;-73
2023/06/06 12:20:23;;;;;;;9.75;6.10;;;22.40;82.10;;;;;;5048982;28;20434;-76
2023/06/06 12:22:49;;;;;;;10.13;6.30;;;22.40;81.90;;;;;;5041521;28;20473;-72
2023/06/06 12:25:27;;;;;;;8.57;5.63;;;22.40;81.70;;;;;;5041348;28;20041;-73
2023/06/06 12:27:55;;;;;;;9.13;5.57;;;22.40;81.80;;;;;;5040039;28;20036;-79
2023/06/06 12:30:31;;;;;;;8.82;4.60;;;22.40;82.20;;;;;;5035413;28;20028;-72
2023/06/06 12:33:01;;;;;;;7.25;5.03;;;22.40;82.40;;;;;;5043770;28;20017;-78
2023/06/06 12:35:27;;;;;;;10.35;6.07;;;22.40;82.50;;;;;;5056395;28;20024;-72
2023/06/06 12:37:53;;;;;;;10.77;6.18;;;22.40;82.60;;;;;;5056160;28;20033;-72
2023/06/06 12:40:20;;;;;;;8.70;5.55;;;22.40;82.40;;;;;;5055507;28;20036;-72
2023/06/06 12:42:54;;;;;;;11.77;6.03;;;22.50;82.40;;;;;;5044417;28;20120;-72